Miami, FL

3:40 AM EST on December 07, 2016 (GMT -0500)
Miami International | | Change Station

Elev 13 ft 25.79 °N, 80.32 °W | Updated 47 minutes ago

Overcast
Overcast
77 °F
Feels Like 77 °F
N
4
Wind Variable Wind from WSW

Today
High -- | Low -- °F
--% Chance of Precip.
Yesterday
High -- | Low -- °F
Precip. -- in
Pressure 29.99 in
Visibility 6.0 miles
Clouds Mostly Cloudy 700 ft
Overcast 2000 ft
Dew Point 75 °F
Humidity 94%
Rainfall 0.00 in
Snow Depth Not available.
6:55 AM 5:30 PM
Waxing Crescent, 50% visible
METAR KMIA 070753Z COR 25003KT 6SM BR BKN007 OVC020 25/24 A2998 RMK AO2 SLP153 98187 T02500239
Pressure 29.99 in
Visibility 6.0 miles
Clouds Mostly Cloudy 700 ft
Overcast 2000 ft
Dew Point 75 °F
Humidity 94%
Rainfall 0.00 in
Snow Depth Not available.
6:55 AM 5:30 PM
Waxing Crescent, 50% visible
METAR KMIA 070753Z COR 25003KT 6SM BR BKN007 OVC020 25/24 A2998 RMK AO2 SLP153 98187 T02500239

10-Day Weather Forecast

Almanac

Astronomy

Dec. 07, 2016 Rise Set
Actual Time
Civil Twilight
Nautical Twilight
Astronomical Twilight
Moon
Length of Visible Light
Length of Day
Tomorrow will be .
, % of the Moon is Illuminated

Today's Extremes

State Highs State Lows

Community

WunderPhotos

Upload Photos

1,956,104 photos uploaded!

WunderBlog® & News

Nearby

Air Quality

  Air Quality AQ Index Pollutant
Not available.

Snow Depth

Station Depth Elevation

Earthquake Activity

City Distance Mag. Time & Date
Minimum magnitude displayed is 2.5.

Coastal Water Temperatures

Place Temperature

Stations

Nearby Weather Stations

Station Location Temp. Windchill Dew Point Humidity Wind Precip. Elev Updated Type
                   

Watches & Warnings

There are currently no watches in effect.